sensor_id;sensor_type;location;lat;lon;timestamp;P1;durP1;ratioP1;P2;durP2;ratioP2
54919;SDS011;63804;53.120;8.764;2023-04-25T00:00:15;17.75;;;4.43;;
54919;SDS011;63804;53.120;8.764;2023-04-25T00:02:43;19.02;;;4.75;;
54919;SDS011;63804;53.120;8.764;2023-04-25T00:05:10;18.42;;;4.50;;
54919;SDS011;63804;53.120;8.764;2023-04-25T00:07:38;18.70;;;4.82;;
54919;SDS011;63804;53.120;8.764;2023-04-25T00:10:05;22.88;;;5.07;;
54919;SDS011;63804;53.120;8.764;2023-04-25T00:12:33;19.55;;;4.70;;
54919;SDS011;63804;53.120;8.764;2023-04-25T00:15:00;18.73;;;4.75;;
54919;SDS011;63804;53.120;8.764;2023-04-25T00:17:27;20.77;;;4.43;;
54919;SDS011;63804;53.120;8.764;2023-04-25T00:19:54;23.60;;;5.00;;
54919;SDS011;63804;53.120;8.764;2023-04-25T00:22:22;20.42;;;4.45;;
54919;SDS011;63804;53.120;8.764;2023-04-25T00:24:49;21.50;;;4.90;;
54919;SDS011;63804;53.120;8.764;2023-04-25T00:27:16;17.95;;;4.20;;
54919;SDS011;63804;53.120;8.764;2023-04-25T00:29:43;20.10;;;4.50;;
54919;SDS011;63804;53.120;8.764;2023-04-25T00:32:10;21.45;;;4.85;;
54919;SDS011;63804;53.120;8.764;2023-04-25T00:34:37;22.20;;;4.72;;
54919;SDS011;63804;53.120;8.764;2023-04-25T00:37:04;20.45;;;4.53;;
54919;SDS011;63804;53.120;8.764;2023-04-25T00:39:32;19.15;;;4.80;;
54919;SDS011;63804;53.120;8.764;2023-04-25T00:41:59;24.00;;;5.30;;
54919;SDS011;63804;53.120;8.764;2023-04-25T00:44:27;16.73;;;4.28;;
54919;SDS011;63804;53.120;8.764;2023-04-25T00:46:56;21.13;;;4.53;;
54919;SDS011;63804;53.120;8.764;2023-04-25T00:49:23;19.63;;;4.53;;
54919;SDS011;63804;53.120;8.764;2023-04-25T00:51:50;22.42;;;4.20;;
54919;SDS011;63804;53.120;8.764;2023-04-25T00:54:17;22.25;;;4.72;;
54919;SDS011;63804;53.120;8.764;2023-04-25T00:56:44;17.92;;;4.68;;
54919;SDS011;63804;53.120;8.764;2023-04-25T00:59:11;21.73;;;4.55;;
54919;SDS011;63804;53.120;8.764;2023-04-25T01:01:39;22.27;;;4.60;;
54919;SDS011;63804;53.120;8.764;2023-04-25T01:04:08;21.25;;;5.30;;
54919;SDS011;63804;53.120;8.764;2023-04-25T01:06:35;20.17;;;4.97;;
54919;SDS011;63804;53.120;8.764;2023-04-25T01:09:02;26.15;;;5.03;;
54919;SDS011;63804;53.120;8.764;2023-04-25T01:11:31;24.02;;;5.38;;
54919;SDS011;63804;53.120;8.764;2023-04-25T01:13:58;22.55;;;4.93;;
54919;SDS011;63804;53.120;8.764;2023-04-25T01:16:25;22.80;;;4.97;;
54919;SDS011;63804;53.120;8.764;2023-04-25T01:18:53;21.30;;;4.97;;
54919;SDS011;63804;53.120;8.764;2023-04-25T01:21:21;19.38;;;5.28;;
54919;SDS011;63804;53.120;8.764;2023-04-25T01:23:48;20.35;;;5.25;;
54919;SDS011;63804;53.120;8.764;2023-04-25T01:26:16;18.20;;;4.47;;
54919;SDS011;63804;53.120;8.764;2023-04-25T01:28:44;21.08;;;4.90;;
54919;SDS011;63804;53.120;8.764;2023-04-25T01:31:11;16.52;;;4.63;;
54919;SDS011;63804;53.120;8.764;2023-04-25T01:33:40;22.00;;;4.90;;
54919;SDS011;63804;53.120;8.764;2023-04-25T01:36:07;18.88;;;4.80;;
54919;SDS011;63804;53.120;8.764;2023-04-25T01:38:34;20.95;;;4.57;;
54919;SDS011;63804;53.120;8.764;2023-04-25T01:41:02;16.98;;;4.47;;
54919;SDS011;63804;53.120;8.764;2023-04-25T01:43:29;23.58;;;5.00;;
54919;SDS011;63804;53.120;8.764;2023-04-25T01:45:56;21.75;;;5.00;;
54919;SDS011;63804;53.120;8.764;2023-04-25T01:48:23;20.50;;;4.82;;
54919;SDS011;63804;53.120;8.764;2023-04-25T01:50:50;20.92;;;5.18;;
54919;SDS011;63804;53.120;8.764;2023-04-25T01:53:17;23.55;;;4.95;;
54919;SDS011;63804;53.120;8.764;2023-04-25T01:55:44;22.38;;;5.22;;
54919;SDS011;63804;53.120;8.764;2023-04-25T01:58:11;18.42;;;5.30;;
54919;SDS011;63804;53.120;8.764;2023-04-25T02:00:39;23.20;;;5.28;;
54919;SDS011;63804;53.120;8.764;2023-04-25T02:03:07;22.40;;;5.30;;
54919;SDS011;63804;53.120;8.764;2023-04-25T02:05:35;22.75;;;4.90;;
54919;SDS011;63804;53.120;8.764;2023-04-25T02:08:04;20.85;;;5.28;;
54919;SDS011;63804;53.120;8.764;2023-04-25T02:10:32;20.45;;;5.03;;
54919;SDS011;63804;53.120;8.764;2023-04-25T02:13:00;19.73;;;4.57;;
54919;SDS011;63804;53.120;8.764;2023-04-25T02:15:27;18.67;;;4.25;;
54919;SDS011;63804;53.120;8.764;2023-04-25T02:17:54;21.13;;;4.85;;
54919;SDS011;63804;53.120;8.764;2023-04-25T02:20:22;23.17;;;5.00;;
54919;SDS011;63804;53.120;8.764;2023-04-25T02:22:50;21.20;;;5.57;;
54919;SDS011;63804;53.120;8.764;2023-04-25T02:25:18;20.95;;;4.97;;
54919;SDS011;63804;53.120;8.764;2023-04-25T02:27:47;23.98;;;4.97;;
54919;SDS011;63804;53.120;8.764;2023-04-25T02:30:14;21.65;;;5.28;;
54919;SDS011;63804;53.120;8.764;2023-04-25T02:32:42;21.02;;;5.15;;
54919;SDS011;63804;53.120;8.764;2023-04-25T02:35:09;20.60;;;4.30;;
54919;SDS011;63804;53.120;8.764;2023-04-25T02:37:37;19.73;;;5.00;;
54919;SDS011;63804;53.120;8.764;2023-04-25T02:40:05;21.33;;;5.30;;
54919;SDS011;63804;53.120;8.764;2023-04-25T02:42:32;28.17;;;6.35;;
54919;SDS011;63804;53.120;8.764;2023-04-25T02:44:59;23.50;;;6.13;;
54919;SDS011;63804;53.120;8.764;2023-04-25T02:47:26;26.90;;;6.50;;
54919;SDS011;63804;53.120;8.764;2023-04-25T02:49:53;22.02;;;5.85;;
54919;SDS011;63804;53.120;8.764;2023-04-25T02:52:20;25.08;;;5.65;;
54919;SDS011;63804;53.120;8.764;2023-04-25T02:54:47;22.77;;;5.15;;
54919;SDS011;63804;53.120;8.764;2023-04-25T02:57:14;20.95;;;5.40;;
54919;SDS011;63804;53.120;8.764;2023-04-25T02:59:41;22.20;;;4.70;;
54919;SDS011;63804;53.120;8.764;2023-04-25T03:02:09;21.90;;;4.25;;
54919;SDS011;63804;53.120;8.764;2023-04-25T03:04:36;20.90;;;4.72;;
54919;SDS011;63804;53.120;8.764;2023-04-25T03:07:03;21.25;;;4.97;;
54919;SDS011;63804;53.120;8.764;2023-04-25T03:09:30;15.48;;;4.30;;
54919;SDS011;63804;53.120;8.764;2023-04-25T03:11:57;18.67;;;4.78;;
54919;SDS011;63804;53.120;8.764;2023-04-25T03:14:24;19.98;;;4.45;;
54919;SDS011;63804;53.120;8.764;2023-04-25T03:16:51;17.92;;;4.07;;
54919;SDS011;63804;53.120;8.764;2023-04-25T03:19:18;21.50;;;4.65;;
54919;SDS011;63804;53.120;8.764;2023-04-25T03:21:46;21.23;;;3.72;;
54919;SDS011;63804;53.120;8.764;2023-04-25T03:24:13;19.17;;;4.25;;
54919;SDS011;63804;53.120;8.764;2023-04-25T03:26:40;20.83;;;4.35;;
54919;SDS011;63804;53.120;8.764;2023-04-25T03:29:08;18.17;;;4.45;;
54919;SDS011;63804;53.120;8.764;2023-04-25T03:31:35;23.08;;;5.47;;
54919;SDS011;63804;53.120;8.764;2023-04-25T03:34:02;17.23;;;4.65;;
54919;SDS011;63804;53.120;8.764;2023-04-25T03:36:29;21.52;;;5.07;;
54919;SDS011;63804;53.120;8.764;2023-04-25T03:38:56;21.23;;;5.57;;
54919;SDS011;63804;53.120;8.764;2023-04-25T03:41:23;22.60;;;5.90;;
54919;SDS011;63804;53.120;8.764;2023-04-25T03:43:50;21.25;;;6.32;;
54919;SDS011;63804;53.120;8.764;2023-04-25T03:46:17;22.02;;;5.97;;
54919;SDS011;63804;53.120;8.764;2023-04-25T03:48:44;18.88;;;5.80;;
54919;SDS011;63804;53.120;8.764;2023-04-25T03:51:11;22.50;;;5.72;;
54919;SDS011;63804;53.120;8.764;2023-04-25T03:53:38;19.95;;;4.88;;
54919;SDS011;63804;53.120;8.764;2023-04-25T03:56:05;16.98;;;4.38;;
54919;SDS011;63804;53.120;8.764;2023-04-25T03:58:33;17.33;;;4.78;;
54919;SDS011;63804;53.120;8.764;2023-04-25T04:01:00;20.35;;;5.05;;
54919;SDS011;63804;53.120;8.764;2023-04-25T04:03:29;17.40;;;4.35;;
54919;SDS011;63804;53.120;8.764;2023-04-25T04:05:56;16.13;;;4.40;;
54919;SDS011;63804;53.120;8.764;2023-04-25T04:08:23;19.70;;;4.25;;
54919;SDS011;63804;53.120;8.764;2023-04-25T04:10:51;17.90;;;4.50;;
54919;SDS011;63804;53.120;8.764;2023-04-25T04:13:18;16.73;;;4.35;;
54919;SDS011;63804;53.120;8.764;2023-04-25T04:15:45;18.15;;;4.28;;
54919;SDS011;63804;53.120;8.764;2023-04-25T04:18:12;20.63;;;4.32;;
54919;SDS011;63804;53.120;8.764;2023-04-25T04:20:39;21.30;;;4.55;;
54919;SDS011;63804;53.120;8.764;2023-04-25T04:23:06;17.70;;;5.03;;
54919;SDS011;63804;53.120;8.764;2023-04-25T04:25:33;19.95;;;4.80;;
54919;SDS011;63804;53.120;8.764;2023-04-25T04:28:00;21.13;;;4.78;;
54919;SDS011;63804;53.120;8.764;2023-04-25T04:30:27;16.25;;;4.60;;
54919;SDS011;63804;53.120;8.764;2023-04-25T04:32:57;20.63;;;5.55;;
54919;SDS011;63804;53.120;8.764;2023-04-25T04:35:24;21.17;;;4.93;;
54919;SDS011;63804;53.120;8.764;2023-04-25T04:37:51;17.83;;;4.88;;
54919;SDS011;63804;53.120;8.764;2023-04-25T04:40:18;17.70;;;4.88;;
54919;SDS011;63804;53.120;8.764;2023-04-25T04:42:45;20.77;;;4.78;;
54919;SDS011;63804;53.120;8.764;2023-04-25T04:45:13;17.95;;;5.10;;
54919;SDS011;63804;53.120;8.764;2023-04-25T04:47:40;18.88;;;4.53;;
54919;SDS011;63804;53.120;8.764;2023-04-25T04:50:07;16.88;;;4.90;;
54919;SDS011;63804;53.120;8.764;2023-04-25T04:52:36;16.65;;;5.10;;
54919;SDS011;63804;53.120;8.764;2023-04-25T04:55:04;15.27;;;4.50;;
54919;SDS011;63804;53.120;8.764;2023-04-25T04:57:32;18.48;;;4.70;;
54919;SDS011;63804;53.120;8.764;2023-04-25T04:59:59;14.45;;;4.03;;
54919;SDS011;63804;53.120;8.764;2023-04-25T05:02:26;20.73;;;4.80;;
54919;SDS011;63804;53.120;8.764;2023-04-25T05:04:55;17.52;;;4.47;;
54919;SDS011;63804;53.120;8.764;2023-04-25T05:07:23;14.73;;;3.85;;
54919;SDS011;63804;53.120;8.764;2023-04-25T05:09:50;16.75;;;4.20;;
54919;SDS011;63804;53.120;8.764;2023-04-25T05:12:17;16.58;;;3.80;;
54919;SDS011;63804;53.120;8.764;2023-04-25T05:14:44;20.77;;;4.03;;
54919;SDS011;63804;53.120;8.764;2023-04-25T05:17:11;15.98;;;4.22;;
54919;SDS011;63804;53.120;8.764;2023-04-25T05:19:38;18.67;;;4.88;;
54919;SDS011;63804;53.120;8.764;2023-04-25T05:22:05;15.25;;;3.83;;
54919;SDS011;63804;53.120;8.764;2023-04-25T05:24:32;16.77;;;3.50;;
54919;SDS011;63804;53.120;8.764;2023-04-25T05:26:59;16.95;;;4.85;;
54919;SDS011;63804;53.120;8.764;2023-04-25T05:29:26;14.15;;;4.05;;
54919;SDS011;63804;53.120;8.764;2023-04-25T05:31:53;18.70;;;3.40;;
54919;SDS011;63804;53.120;8.764;2023-04-25T05:34:20;14.02;;;3.38;;
54919;SDS011;63804;53.120;8.764;2023-04-25T05:36:47;15.68;;;3.78;;
54919;SDS011;63804;53.120;8.764;2023-04-25T05:39:15;10.82;;;3.20;;
54919;SDS011;63804;53.120;8.764;2023-04-25T05:41:44;13.48;;;3.38;;
54919;SDS011;63804;53.120;8.764;2023-04-25T05:44:10;12.70;;;2.97;;
54919;SDS011;63804;53.120;8.764;2023-04-25T05:46:37;15.73;;;3.53;;
54919;SDS011;63804;53.120;8.764;2023-04-25T05:49:04;13.07;;;3.15;;
54919;SDS011;63804;53.120;8.764;2023-04-25T05:51:31;15.57;;;4.05;;
54919;SDS011;63804;53.120;8.764;2023-04-25T05:53:59;16.92;;;4.10;;
54919;SDS011;63804;53.120;8.764;2023-04-25T05:56:26;15.98;;;3.30;;
54919;SDS011;63804;53.120;8.764;2023-04-25T05:58:52;15.90;;;3.33;;
54919;SDS011;63804;53.120;8.764;2023-04-25T06:01:20;13.88;;;3.75;;
54919;SDS011;63804;53.120;8.764;2023-04-25T06:03:48;18.67;;;3.90;;
54919;SDS011;63804;53.120;8.764;2023-04-25T06:06:16;13.27;;;3.15;;
54919;SDS011;63804;53.120;8.764;2023-04-25T06:08:43;14.85;;;3.42;;
54919;SDS011;63804;53.120;8.764;2023-04-25T06:11:10;15.45;;;3.70;;
54919;SDS011;63804;53.120;8.764;2023-04-25T06:13:37;16.95;;;3.60;;
54919;SDS011;63804;53.120;8.764;2023-04-25T06:16:05;13.63;;;3.00;;
54919;SDS011;63804;53.120;8.764;2023-04-25T06:18:32;15.65;;;3.42;;
54919;SDS011;63804;53.120;8.764;2023-04-25T06:20:59;15.52;;;3.70;;
54919;SDS011;63804;53.120;8.764;2023-04-25T06:23:26;13.60;;;3.40;;
54919;SDS011;63804;53.120;8.764;2023-04-25T06:25:53;18.38;;;4.00;;
54919;SDS011;63804;53.120;8.764;2023-04-25T06:28:20;15.15;;;3.17;;
54919;SDS011;63804;53.120;8.764;2023-04-25T06:30:48;18.00;;;4.43;;
54919;SDS011;63804;53.120;8.764;2023-04-25T06:33:15;17.73;;;4.50;;
54919;SDS011;63804;53.120;8.764;2023-04-25T06:35:42;17.17;;;4.30;;
54919;SDS011;63804;53.120;8.764;2023-04-25T06:38:09;14.15;;;3.55;;
54919;SDS011;63804;53.120;8.764;2023-04-25T06:40:36;16.73;;;3.80;;
54919;SDS011;63804;53.120;8.764;2023-04-25T06:43:03;16.20;;;3.42;;
54919;SDS011;63804;53.120;8.764;2023-04-25T06:45:30;13.63;;;3.63;;
54919;SDS011;63804;53.120;8.764;2023-04-25T06:47:57;12.93;;;2.90;;
54919;SDS011;63804;53.120;8.764;2023-04-25T06:50:24;19.00;;;3.22;;
54919;SDS011;63804;53.120;8.764;2023-04-25T06:52:51;12.52;;;3.40;;
54919;SDS011;63804;53.120;8.764;2023-04-25T06:55:18;14.35;;;2.72;;
54919;SDS011;63804;53.120;8.764;2023-04-25T06:57:45;10.40;;;2.67;;
54919;SDS011;63804;53.120;8.764;2023-04-25T07:00:12;11.15;;;2.58;;
54919;SDS011;63804;53.120;8.764;2023-04-25T07:02:39;11.60;;;2.65;;
54919;SDS011;63804;53.120;8.764;2023-04-25T07:05:09;12.90;;;3.42;;
54919;SDS011;63804;53.120;8.764;2023-04-25T07:07:36;11.70;;;2.45;;
54919;SDS011;63804;53.120;8.764;2023-04-25T07:10:02;13.40;;;2.90;;
54919;SDS011;63804;53.120;8.764;2023-04-25T07:12:30;10.63;;;2.70;;
54919;SDS011;63804;53.120;8.764;2023-04-25T07:14:57;12.93;;;2.63;;
54919;SDS011;63804;53.120;8.764;2023-04-25T07:17:25;13.23;;;2.90;;
54919;SDS011;63804;53.120;8.764;2023-04-25T07:19:52;11.50;;;2.60;;
54919;SDS011;63804;53.120;8.764;2023-04-25T07:22:18;14.77;;;2.90;;
54919;SDS011;63804;53.120;8.764;2023-04-25T07:24:45;15.07;;;2.65;;
54919;SDS011;63804;53.120;8.764;2023-04-25T07:27:15;10.93;;;2.72;;
54919;SDS011;63804;53.120;8.764;2023-04-25T07:29:42;12.27;;;3.05;;
54919;SDS011;63804;53.120;8.764;2023-04-25T07:32:09;9.90;;;2.88;;
54919;SDS011;63804;53.120;8.764;2023-04-25T07:34:38;12.43;;;3.45;;
54919;SDS011;63804;53.120;8.764;2023-04-25T07:37:06;14.23;;;3.63;;
54919;SDS011;63804;53.120;8.764;2023-04-25T07:39:33;11.93;;;3.88;;
54919;SDS011;63804;53.120;8.764;2023-04-25T07:42:00;13.98;;;3.40;;
54919;SDS011;63804;53.120;8.764;2023-04-25T07:44:28;13.57;;;3.15;;
54919;SDS011;63804;53.120;8.764;2023-04-25T07:46:56;13.70;;;3.33;;
54919;SDS011;63804;53.120;8.764;2023-04-25T07:49:24;14.20;;;3.25;;
54919;SDS011;63804;53.120;8.764;2023-04-25T07:51:51;12.00;;;2.97;;
54919;SDS011;63804;53.120;8.764;2023-04-25T07:54:18;12.32;;;3.03;;
54919;SDS011;63804;53.120;8.764;2023-04-25T07:56:45;10.02;;;2.42;;
54919;SDS011;63804;53.120;8.764;2023-04-25T07:59:19;8.82;;;2.20;;
54919;SDS011;63804;53.120;8.764;2023-04-25T08:01:46;10.43;;;2.08;;
54919;SDS011;63804;53.120;8.764;2023-04-25T08:04:13;8.50;;;2.40;;
54919;SDS011;63804;53.120;8.764;2023-04-25T08:06:40;14.65;;;2.72;;
54919;SDS011;63804;53.120;8.764;2023-04-25T08:09:07;12.52;;;2.47;;
54919;SDS011;63804;53.120;8.764;2023-04-25T08:11:36;13.05;;;2.42;;
54919;SDS011;63804;53.120;8.764;2023-04-25T08:14:03;13.30;;;2.67;;
54919;SDS011;63804;53.120;8.764;2023-04-25T08:16:30;10.02;;;2.10;;
54919;SDS011;63804;53.120;8.764;2023-04-25T08:18:57;12.93;;;2.50;;
54919;SDS011;63804;53.120;8.764;2023-04-25T08:21:24;11.27;;;2.38;;
54919;SDS011;63804;53.120;8.764;2023-04-25T08:23:51;11.05;;;2.85;;
54919;SDS011;63804;53.120;8.764;2023-04-25T08:26:18;13.85;;;2.75;;
54919;SDS011;63804;53.120;8.764;2023-04-25T08:28:45;13.73;;;3.70;;
54919;SDS011;63804;53.120;8.764;2023-04-25T08:31:12;15.25;;;4.20;;
54919;SDS011;63804;53.120;8.764;2023-04-25T08:33:40;13.45;;;3.55;;
54919;SDS011;63804;53.120;8.764;2023-04-25T08:36:07;18.13;;;4.35;;
54919;SDS011;63804;53.120;8.764;2023-04-25T08:38:34;15.27;;;5.30;;
54919;SDS011;63804;53.120;8.764;2023-04-25T08:41:01;13.13;;;3.55;;
54919;SDS011;63804;53.120;8.764;2023-04-25T08:43:29;12.70;;;2.90;;
54919;SDS011;63804;53.120;8.764;2023-04-25T08:46:00;12.30;;;2.75;;
54919;SDS011;63804;53.120;8.764;2023-04-25T08:48:27;9.77;;;2.50;;
54919;SDS011;63804;53.120;8.764;2023-04-25T08:50:57;9.82;;;2.25;;
54919;SDS011;63804;53.120;8.764;2023-04-25T08:53:25;10.95;;;2.60;;
54919;SDS011;63804;53.120;8.764;2023-04-25T08:55:54;10.05;;;2.25;;
54919;SDS011;63804;53.120;8.764;2023-04-25T08:58:23;8.45;;;2.40;;
54919;SDS011;63804;53.120;8.764;2023-04-25T09:00:51;11.27;;;2.70;;
54919;SDS011;63804;53.120;8.764;2023-04-25T09:03:19;10.45;;;2.67;;
54919;SDS011;63804;53.120;8.764;2023-04-25T09:05:46;8.73;;;2.30;;
54919;SDS011;63804;53.120;8.764;2023-04-25T09:08:14;9.70;;;2.05;;
54919;SDS011;63804;53.120;8.764;2023-04-25T09:10:41;11.57;;;2.22;;
54919;SDS011;63804;53.120;8.764;2023-04-25T09:13:12;10.20;;;2.15;;
54919;SDS011;63804;53.120;8.764;2023-04-25T09:15:51;8.60;;;2.40;;
54919;SDS011;63804;53.120;8.764;2023-04-25T09:18:29;9.18;;;1.85;;
54919;SDS011;63804;53.120;8.764;2023-04-25T09:21:08;8.73;;;1.95;;
54919;SDS011;63804;53.120;8.764;2023-04-25T09:23:44;8.63;;;1.90;;
54919;SDS011;63804;53.120;8.764;2023-04-25T09:26:16;11.73;;;2.88;;
54919;SDS011;63804;53.120;8.764;2023-04-25T09:28:47;12.60;;;2.80;;
54919;SDS011;63804;53.120;8.764;2023-04-25T09:31:25;8.65;;;2.10;;
54919;SDS011;63804;53.120;8.764;2023-04-25T09:33:58;7.47;;;1.42;;
54919;SDS011;63804;53.120;8.764;2023-04-25T09:36:27;7.18;;;1.75;;
54919;SDS011;63804;53.120;8.764;2023-04-25T09:38:57;8.73;;;1.67;;
54919;SDS011;63804;53.120;8.764;2023-04-25T09:41:26;6.35;;;1.60;;
54919;SDS011;63804;53.120;8.764;2023-04-25T09:43:56;8.05;;;1.90;;
54919;SDS011;63804;53.120;8.764;2023-04-25T09:46:23;10.27;;;1.95;;
54919;SDS011;63804;53.120;8.764;2023-04-25T09:48:51;8.70;;;1.95;;
54919;SDS011;63804;53.120;8.764;2023-04-25T09:51:20;8.82;;;1.83;;
54919;SDS011;63804;53.120;8.764;2023-04-25T09:53:53;8.02;;;1.73;;
54919;SDS011;63804;53.120;8.764;2023-04-25T09:56:20;8.57;;;1.55;;
54919;SDS011;63804;53.120;8.764;2023-04-25T09:58:48;7.68;;;1.63;;
54919;SDS011;63804;53.120;8.764;2023-04-25T10:01:20;9.70;;;1.67;;
54919;SDS011;63804;53.120;8.764;2023-04-25T10:03:48;6.45;;;1.50;;
54919;SDS011;63804;53.120;8.764;2023-04-25T10:06:18;10.27;;;1.55;;
54919;SDS011;63804;53.120;8.764;2023-04-25T10:08:46;6.35;;;1.25;;
54919;SDS011;63804;53.120;8.764;2023-04-25T10:11:17;9.85;;;1.40;;
54919;SDS011;63804;53.120;8.764;2023-04-25T10:13:44;6.20;;;1.35;;
54919;SDS011;63804;53.120;8.764;2023-04-25T10:16:12;4.82;;;1.15;;
54919;SDS011;63804;53.120;8.764;2023-04-25T10:18:40;4.15;;;1.25;;
54919;SDS011;63804;53.120;8.764;2023-04-25T10:21:07;6.13;;;1.30;;
54919;SDS011;63804;53.120;8.764;2023-04-25T10:23:34;7.53;;;1.42;;
54919;SDS011;63804;53.120;8.764;2023-04-25T10:26:03;9.38;;;2.38;;
54919;SDS011;63804;53.120;8.764;2023-04-25T10:28:39;8.77;;;1.85;;
54919;SDS011;63804;53.120;8.764;2023-04-25T10:31:26;9.13;;;2.22;;
54919;SDS011;63804;53.120;8.764;2023-04-25T10:33:54;10.80;;;1.75;;
54919;SDS011;63804;53.120;8.764;2023-04-25T10:36:21;9.73;;;3.03;;
54919;SDS011;63804;53.120;8.764;2023-04-25T10:38:50;11.60;;;2.40;;
54919;SDS011;63804;53.120;8.764;2023-04-25T10:41:18;9.15;;;2.22;;
54919;SDS011;63804;53.120;8.764;2023-04-25T10:43:47;9.27;;;1.80;;
54919;SDS011;63804;53.120;8.764;2023-04-25T10:46:16;12.80;;;1.90;;
54919;SDS011;63804;53.120;8.764;2023-04-25T10:48:49;8.38;;;2.13;;
54919;SDS011;63804;53.120;8.764;2023-04-25T10:51:17;7.68;;;1.70;;
54919;SDS011;63804;53.120;8.764;2023-04-25T10:53:45;9.18;;;1.73;;
54919;SDS011;63804;53.120;8.764;2023-04-25T10:56:19;7.82;;;1.40;;
54919;SDS011;63804;53.120;8.764;2023-04-25T10:58:48;6.03;;;1.65;;
54919;SDS011;63804;53.120;8.764;2023-04-25T11:01:19;9.10;;;1.98;;
54919;SDS011;63804;53.120;8.764;2023-04-25T11:03:48;7.72;;;1.80;;
54919;SDS011;63804;53.120;8.764;2023-04-25T11:06:22;7.22;;;1.77;;
54919;SDS011;63804;53.120;8.764;2023-04-25T11:08:55;8.15;;;1.70;;
54919;SDS011;63804;53.120;8.764;2023-04-25T11:11:22;8.95;;;1.80;;
54919;SDS011;63804;53.120;8.764;2023-04-25T11:13:50;9.98;;;2.10;;
54919;SDS011;63804;53.120;8.764;2023-04-25T11:16:17;9.85;;;1.90;;
54919;SDS011;63804;53.120;8.764;2023-04-25T11:19:04;10.60;;;1.88;;
54919;SDS011;63804;53.120;8.764;2023-04-25T11:21:31;11.15;;;2.60;;
54919;SDS011;63804;53.120;8.764;2023-04-25T11:23:58;10.63;;;2.22;;
54919;SDS011;63804;53.120;8.764;2023-04-25T11:26:26;7.80;;;1.88;;
54919;SDS011;63804;53.120;8.764;2023-04-25T11:28:56;10.43;;;1.98;;
54919;SDS011;63804;53.120;8.764;2023-04-25T11:31:25;11.18;;;1.55;;
54919;SDS011;63804;53.120;8.764;2023-04-25T11:33:53;8.23;;;1.45;;
54919;SDS011;63804;53.120;8.764;2023-04-25T11:36:22;9.35;;;1.88;;
54919;SDS011;63804;53.120;8.764;2023-04-25T11:38:50;9.55;;;1.70;;
54919;SDS011;63804;53.120;8.764;2023-04-25T11:41:18;7.43;;;1.40;;
54919;SDS011;63804;53.120;8.764;2023-04-25T11:43:46;8.02;;;1.88;;
54919;SDS011;63804;53.120;8.764;2023-04-25T11:46:15;7.38;;;1.70;;
54919;SDS011;63804;53.120;8.764;2023-04-25T11:48:42;9.88;;;1.92;;
54919;SDS011;63804;53.120;8.764;2023-04-25T11:51:09;7.30;;;1.67;;
54919;SDS011;63804;53.120;8.764;2023-04-25T11:53:36;7.15;;;1.52;;
54919;SDS011;63804;53.120;8.764;2023-04-25T11:56:11;6.82;;;1.80;;
54919;SDS011;63804;53.120;8.764;2023-04-25T11:58:54;9.57;;;2.05;;
54919;SDS011;63804;53.120;8.764;2023-04-25T12:01:32;6.00;;;1.30;;
54919;SDS011;63804;53.120;8.764;2023-04-25T12:04:11;6.47;;;1.13;;
54919;SDS011;63804;53.120;8.764;2023-04-25T12:06:40;5.38;;;1.10;;
54919;SDS011;63804;53.120;8.764;2023-04-25T12:09:12;6.57;;;1.15;;
54919;SDS011;63804;53.120;8.764;2023-04-25T12:11:46;4.70;;;1.23;;
54919;SDS011;63804;53.120;8.764;2023-04-25T12:14:21;5.07;;;0.93;;
54919;SDS011;63804;53.120;8.764;2023-04-25T12:16:57;4.72;;;1.20;;
54919;SDS011;63804;53.120;8.764;2023-04-25T12:19:26;8.80;;;1.45;;
54919;SDS011;63804;53.120;8.764;2023-04-25T12:22:00;5.15;;;1.20;;
54919;SDS011;63804;53.120;8.764;2023-04-25T12:24:32;7.20;;;1.40;;
54919;SDS011;63804;53.120;8.764;2023-04-25T12:27:04;6.60;;;1.60;;
54919;SDS011;63804;53.120;8.764;2023-04-25T12:29:33;5.25;;;1.52;;
54919;SDS011;63804;53.120;8.764;2023-04-25T12:32:15;6.55;;;1.60;;
54919;SDS011;63804;53.120;8.764;2023-04-25T12:34:42;6.65;;;1.33;;
54919;SDS011;63804;53.120;8.764;2023-04-25T12:37:09;8.60;;;1.70;;
54919;SDS011;63804;53.120;8.764;2023-04-25T12:39:37;7.40;;;1.48;;
54919;SDS011;63804;53.120;8.764;2023-04-25T12:42:04;10.13;;;1.73;;
54919;SDS011;63804;53.120;8.764;2023-04-25T12:44:35;10.65;;;2.10;;
54919;SDS011;63804;53.120;8.764;2023-04-25T12:47:02;7.57;;;1.77;;
54919;SDS011;63804;53.120;8.764;2023-04-25T12:49:30;6.95;;;1.63;;
54919;SDS011;63804;53.120;8.764;2023-04-25T12:51:57;7.85;;;1.67;;
54919;SDS011;63804;53.120;8.764;2023-04-25T12:54:25;7.13;;;1.80;;
54919;SDS011;63804;53.120;8.764;2023-04-25T12:56:52;9.68;;;1.65;;
54919;SDS011;63804;53.120;8.764;2023-04-25T12:59:19;6.95;;;1.63;;
54919;SDS011;63804;53.120;8.764;2023-04-25T13:01:47;5.03;;;1.25;;
54919;SDS011;63804;53.120;8.764;2023-04-25T13:04:15;7.05;;;1.40;;
54919;SDS011;63804;53.120;8.764;2023-04-25T13:06:43;6.20;;;1.20;;
54919;SDS011;63804;53.120;8.764;2023-04-25T13:09:10;6.68;;;1.45;;
54919;SDS011;63804;53.120;8.764;2023-04-25T13:11:39;5.28;;;1.45;;
54919;SDS011;63804;53.120;8.764;2023-04-25T13:14:07;5.13;;;1.00;;
54919;SDS011;63804;53.120;8.764;2023-04-25T13:16:34;7.15;;;1.70;;
54919;SDS011;63804;53.120;8.764;2023-04-25T13:19:01;7.72;;;1.42;;
54919;SDS011;63804;53.120;8.764;2023-04-25T13:21:29;9.63;;;1.55;;
54919;SDS011;63804;53.120;8.764;2023-04-25T13:23:59;7.70;;;1.70;;
54919;SDS011;63804;53.120;8.764;2023-04-25T13:26:26;6.10;;;1.50;;
54919;SDS011;63804;53.120;8.764;2023-04-25T13:28:53;5.88;;;1.63;;
54919;SDS011;63804;53.120;8.764;2023-04-25T13:31:20;7.03;;;1.65;;
54919;SDS011;63804;53.120;8.764;2023-04-25T13:33:48;7.90;;;2.00;;
54919;SDS011;63804;53.120;8.764;2023-04-25T13:36:15;6.85;;;1.92;;
54919;SDS011;63804;53.120;8.764;2023-04-25T13:38:42;9.55;;;1.67;;
54919;SDS011;63804;53.120;8.764;2023-04-25T13:41:11;7.82;;;1.50;;
54919;SDS011;63804;53.120;8.764;2023-04-25T13:43:45;7.68;;;1.67;;
54919;SDS011;63804;53.120;8.764;2023-04-25T13:46:15;9.93;;;1.80;;
54919;SDS011;63804;53.120;8.764;2023-04-25T13:49:02;5.55;;;1.30;;
54919;SDS011;63804;53.120;8.764;2023-04-25T13:51:39;5.40;;;1.30;;
54919;SDS011;63804;53.120;8.764;2023-04-25T13:54:06;5.32;;;1.80;;
54919;SDS011;63804;53.120;8.764;2023-04-25T13:56:34;7.95;;;1.92;;
54919;SDS011;63804;53.120;8.764;2023-04-25T13:59:01;5.07;;;1.42;;
54919;SDS011;63804;53.120;8.764;2023-04-25T14:01:31;8.25;;;1.48;;
54919;SDS011;63804;53.120;8.764;2023-04-25T14:04:01;8.48;;;1.55;;
54919;SDS011;63804;53.120;8.764;2023-04-25T14:06:31;7.15;;;1.30;;
54919;SDS011;63804;53.120;8.764;2023-04-25T14:08:58;8.00;;;1.30;;
54919;SDS011;63804;53.120;8.764;2023-04-25T14:11:27;6.47;;;1.48;;
54919;SDS011;63804;53.120;8.764;2023-04-25T14:13:54;6.32;;;1.40;;
54919;SDS011;63804;53.120;8.764;2023-04-25T14:16:21;6.18;;;1.50;;
54919;SDS011;63804;53.120;8.764;2023-04-25T14:18:50;7.85;;;1.40;;
54919;SDS011;63804;53.120;8.764;2023-04-25T14:21:17;7.47;;;1.60;;
54919;SDS011;63804;53.120;8.764;2023-04-25T14:23:43;6.63;;;1.60;;
54919;SDS011;63804;53.120;8.764;2023-04-25T14:26:11;8.38;;;1.60;;
54919;SDS011;63804;53.120;8.764;2023-04-25T14:28:39;12.10;;;2.28;;
54919;SDS011;63804;53.120;8.764;2023-04-25T14:31:06;7.97;;;1.83;;
54919;SDS011;63804;53.120;8.764;2023-04-25T14:33:33;6.90;;;1.50;;
54919;SDS011;63804;53.120;8.764;2023-04-25T14:36:00;6.30;;;1.13;;
54919;SDS011;63804;53.120;8.764;2023-04-25T14:38:27;5.82;;;1.05;;
54919;SDS011;63804;53.120;8.764;2023-04-25T14:40:54;7.43;;;1.40;;
54919;SDS011;63804;53.120;8.764;2023-04-25T14:43:21;4.97;;;1.15;;